Terminal Aerodrome Forecast
Issued by NWS Grand Junction, CO

Home | Current Version | Previous Version | Text Only | Print | Product List | Glossary On
Versions: 1 2 3 4 5 6 7 8 9 10 11 12 13 14 15
000
FTUS45 KGJT 202338
TAFGJT
TAF
KGJT 202338Z 2100/2124 31008KT P6SM SCT150
     FM210200 07008KT P6SM BKN120
     FM210400 11010KT P6SM BKN120
     FM211500 15009KT P6SM SCT150
     FM212100 22012KT P6SM BKN200=

USA.gov is the U.S. government's official web portal to all federal, state and local government web resources and services.